createdAt,value
2023-01-22T00:01:24.930Z,117.37
2023-01-22T00:03:54.102Z,121.17
2023-01-22T00:06:22.232Z,137.80
2023-01-22T00:08:50.130Z,118.63
2023-01-22T00:11:19.071Z,116.43
2023-01-22T00:13:47.057Z,103.63
2023-01-22T00:16:16.737Z,124.00
2023-01-22T00:18:44.512Z,139.83
2023-01-22T00:21:13.496Z,132.17
2023-01-22T00:23:41.434Z,126.97
2023-01-22T00:26:14.065Z,121.30
2023-01-22T00:28:42.183Z,118.63
2023-01-22T00:31:10.715Z,131.53
2023-01-22T00:33:40.246Z,111.13
2023-01-22T00:36:09.529Z,122.50
2023-01-22T00:38:37.255Z,131.57
2023-01-22T00:41:06.543Z,124.67
2023-01-22T00:43:35.887Z,130.90
2023-01-22T00:46:03.136Z,121.67
2023-01-22T00:48:30.460Z,123.57
2023-01-22T00:50:57.957Z,131.30
2023-01-22T00:53:25.808Z,127.87
2023-01-22T00:56:02.999Z,119.00
2023-01-22T00:58:30.760Z,124.10
2023-01-22T01:00:58.147Z,138.53
2023-01-22T01:03:28.332Z,128.93
2023-01-22T01:05:57.220Z,124.17
2023-01-22T01:08:25.620Z,118.93
2023-01-22T01:10:58.182Z,128.43
2023-01-22T01:13:26.403Z,117.13
2023-01-22T01:16:05.319Z,124.07
2023-01-22T01:18:33.671Z,134.03
2023-01-22T01:21:02.400Z,133.27
2023-01-22T01:23:29.662Z,130.37
2023-01-22T01:25:57.819Z,130.90
2023-01-22T01:28:25.429Z,129.50
2023-01-22T01:30:52.648Z,141.03
2023-01-22T01:33:20.027Z,124.83
2023-01-22T01:35:47.149Z,127.47
2023-01-22T01:38:14.291Z,131.83
2023-01-22T01:40:44.874Z,140.43
2023-01-22T01:43:16.220Z,140.17
2023-01-22T01:45:43.723Z,137.20
2023-01-22T01:48:34.241Z,135.10
2023-01-22T01:51:15.953Z,132.90
2023-01-22T01:53:45.859Z,135.03
2023-01-22T01:56:35.707Z,117.53
2023-01-22T01:59:07.656Z,121.43
2023-01-22T02:01:36.006Z,121.37
2023-01-22T02:04:03.359Z,120.53
2023-01-22T02:06:31.852Z,112.60
2023-01-22T02:09:00.647Z,127.03
2023-01-22T02:11:29.244Z,121.50
2023-01-22T02:14:07.103Z,113.60
2023-01-22T02:16:34.489Z,108.53
2023-01-22T02:19:01.703Z,122.07
2023-01-22T02:21:40.540Z,114.77
2023-01-22T02:24:12.943Z,122.80
2023-01-22T02:26:41.611Z,117.03
2023-01-22T02:29:10.502Z,119.23
2023-01-22T02:31:40.191Z,126.93
2023-01-22T02:34:09.124Z,128.17
2023-01-22T02:36:38.441Z,119.30
2023-01-22T02:39:06.386Z,125.77
2023-01-22T02:41:34.255Z,130.93
2023-01-22T02:44:01.765Z,116.70
2023-01-22T02:46:30.656Z,122.60
2023-01-22T02:48:57.978Z,134.10
2023-01-22T02:51:26.799Z,121.70
2023-01-22T02:53:54.782Z,114.67
2023-01-22T02:56:22.931Z,114.90
2023-01-22T02:58:50.908Z,107.60
2023-01-22T03:01:21.557Z,109.87
2023-01-22T03:04:01.811Z,99.03
2023-01-22T03:06:30.151Z,95.90
2023-01-22T03:09:01.681Z,100.73
2023-01-22T03:11:31.435Z,106.30
2023-01-22T03:14:16.931Z,100.83
2023-01-22T03:17:03.751Z,102.33
2023-01-22T03:19:49.705Z,101.23
2023-01-22T03:22:17.770Z,110.90
2023-01-22T03:24:50.883Z,111.13
2023-01-22T03:27:19.031Z,108.10
2023-01-22T03:29:46.845Z,107.93
2023-01-22T03:32:14.413Z,115.37
2023-01-22T03:34:41.949Z,122.87
2023-01-22T03:37:12.914Z,114.60
2023-01-22T03:39:40.577Z,108.50
2023-01-22T03:42:08.417Z,112.87
2023-01-22T03:44:35.857Z,104.83
2023-01-22T03:47:03.247Z,114.17
2023-01-22T03:49:30.398Z,108.63
2023-01-22T03:51:57.897Z,96.87
2023-01-22T03:54:25.136Z,101.00
2023-01-22T03:56:52.516Z,100.30
2023-01-22T03:59:19.849Z,102.27
2023-01-22T04:01:47.273Z,93.43
2023-01-22T04:04:14.960Z,90.63
2023-01-22T04:06:42.084Z,96.00
2023-01-22T04:09:09.193Z,97.40
2023-01-22T04:11:36.466Z,95.13
2023-01-22T04:14:03.600Z,99.93
2023-01-22T04:16:30.822Z,85.17
2023-01-22T04:18:58.015Z,92.20
2023-01-22T04:21:25.245Z,93.20
2023-01-22T04:23:52.627Z,88.60
2023-01-22T04:26:19.902Z,85.83
2023-01-22T04:28:47.180Z,86.57
2023-01-22T04:31:14.616Z,86.60
2023-01-22T04:33:41.930Z,86.53
2023-01-22T04:36:10.165Z,85.47
2023-01-22T04:38:37.327Z,77.53
2023-01-22T04:41:04.470Z,84.13
2023-01-22T04:43:31.642Z,79.03
2023-01-22T04:45:58.872Z,78.47
2023-01-22T04:48:26.151Z,83.83
2023-01-22T04:50:53.384Z,79.33
2023-01-22T04:53:20.536Z,80.50
2023-01-22T04:55:47.723Z,75.50
2023-01-22T04:58:14.841Z,80.23
2023-01-22T05:00:42.068Z,76.67
2023-01-22T05:03:12.112Z,75.73
2023-01-22T05:05:39.298Z,75.60
2023-01-22T05:08:06.505Z,71.20
2023-01-22T05:10:33.725Z,77.93
2023-01-22T05:13:04.153Z,77.07
2023-01-22T05:15:31.571Z,76.37
2023-01-22T05:17:58.929Z,75.27
2023-01-22T05:20:27.149Z,73.27
2023-01-22T05:22:54.860Z,80.27
2023-01-22T05:25:22.102Z,71.07
2023-01-22T05:27:49.272Z,71.90
2023-01-22T05:30:17.124Z,76.33
2023-01-22T05:32:44.434Z,77.20
2023-01-22T05:35:11.736Z,71.53
2023-01-22T05:37:38.883Z,79.63
2023-01-22T05:40:06.697Z,79.80
2023-01-22T05:42:33.917Z,81.73
2023-01-22T05:45:01.131Z,75.23
2023-01-22T05:47:28.341Z,78.17
2023-01-22T05:49:55.501Z,74.27
2023-01-22T05:52:22.877Z,75.40
2023-01-22T05:54:49.965Z,87.70
2023-01-22T05:57:17.108Z,70.60
2023-01-22T05:59:44.438Z,70.60
2023-01-22T06:02:11.623Z,74.73
2023-01-22T06:04:38.828Z,72.47
2023-01-22T06:07:05.980Z,70.23
2023-01-22T06:09:34.013Z,76.33
2023-01-22T06:12:01.144Z,67.13
2023-01-22T06:14:28.240Z,69.43
2023-01-22T06:16:55.468Z,72.03
2023-01-22T06:19:22.794Z,72.07
2023-01-22T06:21:49.897Z,65.67
2023-01-22T06:24:17.109Z,74.40
2023-01-22T06:26:44.332Z,69.93
2023-01-22T06:29:11.661Z,66.40
2023-01-22T06:31:39.043Z,67.83
2023-01-22T06:34:06.298Z,68.70
2023-01-22T06:36:33.596Z,65.07
2023-01-22T06:39:00.850Z,70.63
2023-01-22T06:41:28.383Z,81.73
2023-01-22T06:43:55.655Z,77.47
2023-01-22T06:46:23.039Z,84.43
2023-01-22T06:48:50.264Z,71.23
2023-01-22T06:51:17.899Z,60.10
2023-01-22T06:53:46.344Z,63.00
2023-01-22T06:56:13.701Z,65.97
2023-01-22T06:58:40.938Z,66.27
2023-01-22T07:01:08.557Z,51.17
2023-01-22T07:03:35.950Z,55.47
2023-01-22T07:06:04.771Z,53.30
2023-01-22T07:08:33.870Z,55.70
2023-01-22T07:11:01.869Z,54.43
2023-01-22T07:13:29.239Z,47.97
2023-01-22T07:15:56.522Z,55.50
2023-01-22T07:18:24.669Z,51.70
2023-01-22T07:20:52.043Z,51.07
2023-01-22T07:23:19.180Z,46.57
2023-01-22T07:25:46.736Z,42.73
2023-01-22T07:28:15.419Z,42.60
2023-01-22T07:30:47.217Z,41.53
2023-01-22T07:33:15.287Z,41.07
2023-01-22T07:35:42.768Z,37.07
2023-01-22T07:38:10.069Z,34.10
2023-01-22T07:40:37.662Z,32.57
2023-01-22T07:43:15.267Z,27.60
2023-01-22T07:45:42.540Z,28.80
2023-01-22T07:48:11.038Z,27.27
2023-01-22T07:50:40.435Z,32.93
2023-01-22T07:53:08.966Z,31.13
2023-01-22T07:55:36.434Z,145.00
2023-01-22T07:58:09.675Z,39.73
2023-01-22T08:00:37.417Z,50.30
2023-01-22T08:03:05.759Z,28.07
2023-01-22T08:05:33.624Z,30.57
2023-01-22T08:08:00.766Z,30.80
2023-01-22T08:10:28.733Z,30.30
2023-01-22T08:12:55.906Z,27.50
2023-01-22T08:15:23.311Z,35.33
2023-01-22T08:17:51.739Z,33.53
2023-01-22T08:20:19.531Z,30.20
2023-01-22T08:22:47.096Z,29.17
2023-01-22T08:25:14.886Z,30.97
2023-01-22T08:27:42.097Z,28.23
2023-01-22T08:30:11.644Z,29.80
2023-01-22T08:32:42.145Z,29.13
2023-01-22T08:35:09.888Z,27.70
2023-01-22T08:37:37.382Z,29.03
2023-01-22T08:40:06.931Z,33.07
2023-01-22T08:42:34.195Z,26.43
2023-01-22T08:45:01.696Z,26.00
2023-01-22T08:47:29.121Z,28.67
2023-01-22T08:49:56.279Z,26.90
2023-01-22T08:52:23.646Z,28.97
2023-01-22T08:54:50.863Z,29.57
2023-01-22T08:57:18.093Z,25.27
2023-01-22T08:59:59.791Z,27.20
2023-01-22T09:02:28.246Z,70.80
2023-01-22T09:04:55.684Z,65.33
2023-01-22T09:07:22.848Z,58.30
2023-01-22T09:09:50.618Z,45.70
2023-01-22T09:12:17.997Z,49.80
2023-01-22T09:14:45.224Z,50.63
2023-01-22T09:17:12.424Z,31.83
2023-01-22T09:19:39.601Z,67.07
2023-01-22T09:22:07.916Z,40.87
2023-01-22T09:24:35.857Z,30.80
2023-01-22T09:27:03.189Z,30.30
2023-01-22T09:29:30.487Z,27.20
2023-01-22T09:31:57.954Z,27.93
2023-01-22T09:34:25.191Z,24.33
2023-01-22T09:36:52.654Z,30.70
2023-01-22T09:39:20.032Z,26.63
2023-01-22T09:41:51.492Z,50.50
2023-01-22T09:44:41.506Z,37.70
2023-01-22T09:47:15.121Z,23.93
2023-01-22T09:50:12.559Z,27.07
2023-01-22T09:52:41.088Z,28.23
2023-01-22T09:55:16.817Z,26.63
2023-01-22T09:57:54.148Z,31.23
2023-01-22T10:00:30.825Z,29.20
2023-01-22T10:03:22.837Z,34.10
2023-01-22T10:05:56.662Z,35.93
2023-01-22T10:08:33.156Z,40.03
2023-01-22T10:11:04.129Z,37.93
2023-01-22T10:13:36.954Z,41.97
2023-01-22T10:16:04.991Z,43.00
2023-01-22T10:19:01.751Z,40.60
2023-01-22T10:21:34.653Z,46.40
2023-01-22T10:24:02.229Z,43.87
2023-01-22T10:26:43.967Z,39.37
2023-01-22T10:29:30.057Z,33.43
2023-01-22T10:32:03.455Z,31.90
2023-01-22T10:34:37.124Z,27.27
2023-01-22T10:37:24.563Z,27.57
2023-01-22T10:39:57.718Z,27.70
2023-01-22T10:42:28.130Z,26.07
2023-01-22T10:44:57.547Z,28.03
2023-01-22T10:47:27.804Z,26.83
2023-01-22T10:50:24.464Z,30.60
2023-01-22T10:52:56.538Z,25.97
2023-01-22T10:55:32.538Z,27.37
2023-01-22T10:58:05.575Z,24.30
2023-01-22T11:00:51.498Z,30.57
2023-01-22T11:03:37.299Z,28.10
2023-01-22T11:06:29.317Z,26.90
2023-01-22T11:09:13.310Z,28.10
2023-01-22T11:11:47.556Z,29.33
2023-01-22T11:14:29.890Z,41.83
2023-01-22T11:17:03.677Z,39.67
2023-01-22T11:19:40.254Z,59.10
2023-01-22T11:22:20.265Z,34.23
2023-01-22T11:24:50.229Z,51.60
2023-01-22T11:27:37.149Z,38.03
2023-01-22T11:30:35.141Z,46.87
2023-01-22T11:33:20.213Z,37.63
2023-01-22T11:35:53.532Z,30.23
2023-01-22T11:38:46.666Z,26.87
2023-01-22T11:41:27.483Z,37.37
2023-01-22T11:44:19.497Z,35.43
2023-01-22T11:46:49.481Z,30.37
2023-01-22T11:49:37.621Z,30.83
2023-01-22T11:52:20.559Z,29.07
2023-01-22T11:54:56.204Z,29.47
2023-01-22T11:57:43.924Z,27.20
2023-01-22T12:00:27.845Z,31.97
2023-01-22T12:03:28.918Z,33.73
2023-01-22T12:06:22.436Z,28.63
2023-01-22T12:09:15.908Z,37.10
2023-01-22T12:12:08.187Z,29.77
2023-01-22T12:14:54.101Z,33.90
2023-01-22T12:17:52.696Z,38.57
2023-01-22T12:20:33.143Z,29.67
2023-01-22T12:23:05.744Z,36.07
2023-01-22T12:25:49.155Z,62.73
2023-01-22T12:28:24.456Z,38.40
2023-01-22T12:31:04.392Z,173.87
2023-01-22T12:33:37.248Z,252.20
2023-01-22T12:36:07.321Z,44.60
2023-01-22T12:38:45.905Z,61.93
2023-01-22T12:41:18.866Z,26.97
2023-01-22T12:44:25.160Z,22.73
2023-01-22T12:47:04.684Z,26.47
2023-01-22T12:49:31.904Z,31.23
2023-01-22T12:52:01.898Z,59.40
2023-01-22T12:54:33.993Z,53.73
2023-01-22T12:57:22.882Z,62.53
2023-01-22T12:59:56.558Z,29.87
2023-01-22T13:02:30.858Z,31.77
2023-01-22T13:05:15.970Z,27.83
2023-01-22T13:07:43.951Z,27.53
2023-01-22T13:10:20.453Z,27.57
2023-01-22T13:12:54.236Z,27.13
2023-01-22T13:15:38.172Z,30.13
2023-01-22T13:18:20.265Z,34.20
2023-01-22T13:21:03.153Z,33.80
2023-01-22T13:23:55.407Z,36.00
2023-01-22T13:26:25.290Z,35.53
2023-01-22T13:28:59.523Z,38.20
2023-01-22T13:31:27.665Z,31.47
2023-01-22T13:34:09.424Z,31.80
2023-01-22T13:36:46.334Z,33.70
2023-01-22T13:39:32.536Z,37.03
2023-01-22T13:42:05.230Z,33.37
2023-01-22T13:44:40.217Z,35.10
2023-01-22T13:47:08.240Z,35.50
2023-01-22T13:49:42.419Z,34.47
2023-01-22T13:52:16.692Z,34.77
2023-01-22T13:55:00.209Z,40.53
2023-01-22T13:57:27.760Z,33.93
2023-01-22T13:59:57.394Z,34.70
2023-01-22T14:02:37.624Z,30.00
2023-01-22T14:05:17.012Z,32.87
2023-01-22T14:07:44.739Z,37.83
2023-01-22T14:10:32.987Z,50.33
2023-01-22T14:13:09.543Z,38.07
2023-01-22T14:15:38.036Z,42.83
2023-01-22T14:18:14.967Z,40.40
2023-01-22T14:20:44.139Z,40.83
2023-01-22T14:23:11.429Z,46.87
2023-01-22T14:25:46.560Z,45.53
2023-01-22T14:28:14.446Z,43.63
2023-01-22T14:30:41.645Z,44.10
2023-01-22T14:33:15.152Z,44.60
2023-01-22T14:35:42.462Z,56.07
2023-01-22T14:38:09.605Z,48.10
2023-01-22T14:40:37.430Z,46.33
2023-01-22T14:43:04.708Z,40.53
2023-01-22T14:45:31.947Z,43.70
2023-01-22T14:48:00.814Z,41.30
2023-01-22T14:50:28.018Z,42.40
2023-01-22T14:52:55.624Z,39.00
2023-01-22T14:55:23.008Z,50.03
2023-01-22T14:57:50.265Z,50.33
2023-01-22T15:00:19.680Z,49.20
2023-01-22T15:02:48.060Z,50.73
2023-01-22T15:05:15.385Z,46.63
2023-01-22T15:07:43.729Z,52.10
2023-01-22T15:10:11.772Z,57.97
2023-01-22T15:12:39.173Z,53.13
2023-01-22T15:15:09.171Z,60.33
2023-01-22T15:17:36.780Z,59.23
2023-01-22T15:20:05.606Z,50.97
2023-01-22T15:22:32.886Z,52.20
2023-01-22T15:25:00.114Z,61.40
2023-01-22T15:27:27.447Z,93.13
2023-01-22T15:29:54.739Z,129.13
2023-01-22T15:32:22.086Z,95.90
2023-01-22T15:34:49.613Z,85.60
2023-01-22T15:37:16.887Z,77.47
2023-01-22T15:39:44.116Z,77.90
2023-01-22T15:42:11.420Z,79.90
2023-01-22T15:44:41.955Z,75.63
2023-01-22T15:47:11.012Z,68.17
2023-01-22T15:49:38.402Z,63.07
2023-01-22T15:52:05.696Z,60.37
2023-01-22T15:54:32.934Z,64.03
2023-01-22T15:57:00.395Z,60.23
2023-01-22T15:59:27.811Z,60.37
2023-01-22T16:01:55.507Z,60.97
2023-01-22T16:04:22.948Z,53.87
2023-01-22T16:06:51.672Z,55.70
2023-01-22T16:09:19.149Z,57.57
2023-01-22T16:11:47.445Z,61.53
2023-01-22T16:14:15.449Z,60.70
2023-01-22T16:16:42.798Z,65.30
2023-01-22T16:19:11.212Z,58.60
2023-01-22T16:21:42.212Z,63.10
2023-01-22T16:24:10.732Z,58.63
2023-01-22T16:26:38.204Z,64.67
2023-01-22T16:29:07.155Z,64.37
2023-01-22T16:31:36.771Z,61.70
2023-01-22T16:34:15.026Z,58.33
2023-01-22T16:36:43.412Z,68.83
2023-01-22T16:39:17.357Z,67.00
2023-01-22T16:41:48.552Z,76.63
2023-01-22T16:44:26.674Z,120.07
2023-01-22T16:46:57.358Z,98.83
2023-01-22T16:49:28.684Z,87.53
2023-01-22T16:51:59.349Z,73.00
2023-01-22T16:54:29.977Z,50.47
2023-01-22T16:56:59.524Z,49.57
2023-01-22T16:59:27.604Z,50.87
2023-01-22T17:01:55.741Z,49.47
2023-01-22T17:04:23.726Z,58.10
2023-01-22T17:06:53.622Z,50.93
2023-01-22T17:09:26.451Z,50.63
2023-01-22T17:11:57.089Z,43.67
2023-01-22T17:14:27.335Z,49.47
2023-01-22T17:16:54.753Z,49.30
2023-01-22T17:19:22.682Z,49.50
2023-01-22T17:21:52.082Z,51.53
2023-01-22T17:24:19.341Z,76.80
2023-01-22T17:26:48.062Z,71.63
2023-01-22T17:29:15.960Z,81.03
2023-01-22T17:31:43.444Z,156.87
2023-01-22T17:34:11.878Z,98.70
2023-01-22T17:36:40.778Z,87.17
2023-01-22T17:39:13.395Z,435.07
2023-01-22T17:41:40.627Z,186.43
2023-01-22T17:44:07.952Z,123.97
2023-01-22T17:46:36.261Z,216.47
2023-01-22T17:49:04.876Z,194.57
2023-01-22T17:51:33.928Z,89.37
2023-01-22T17:54:03.440Z,79.83
2023-01-22T17:56:33.061Z,72.03
2023-01-22T17:59:06.100Z,65.70
2023-01-22T18:01:36.266Z,71.40
2023-01-22T18:04:07.769Z,46.60
2023-01-22T18:06:36.250Z,42.30
2023-01-22T18:09:05.355Z,45.20
2023-01-22T18:11:34.134Z,84.07
2023-01-22T18:14:05.118Z,97.63
2023-01-22T18:16:34.950Z,64.53
2023-01-22T18:19:05.532Z,54.17
2023-01-22T18:21:33.282Z,52.50
2023-01-22T18:24:02.491Z,61.43
2023-01-22T18:26:29.795Z,74.23
2023-01-22T18:28:58.381Z,57.33
2023-01-22T18:31:27.565Z,55.87
2023-01-22T18:33:57.840Z,57.23
2023-01-22T18:36:28.187Z,53.83
2023-01-22T18:38:58.814Z,55.47
2023-01-22T18:41:27.095Z,51.17
2023-01-22T18:43:59.270Z,53.27
2023-01-22T18:46:29.700Z,60.77
2023-01-22T18:48:59.509Z,55.37
2023-01-22T18:51:28.470Z,59.90
2023-01-22T18:53:57.098Z,61.57
2023-01-22T18:56:25.884Z,58.90
2023-01-22T18:58:57.531Z,56.67
2023-01-22T19:01:34.684Z,59.03
2023-01-22T19:04:05.271Z,54.73
2023-01-22T19:06:37.385Z,62.63
2023-01-22T19:09:07.086Z,60.17
2023-01-22T19:11:37.355Z,55.97
2023-01-22T19:14:07.675Z,52.00
2023-01-22T19:16:36.253Z,55.47
2023-01-22T19:19:11.585Z,70.70
2023-01-22T19:21:47.335Z,69.33
2023-01-22T19:24:17.213Z,66.10
2023-01-22T19:26:46.646Z,66.50
2023-01-22T19:29:19.768Z,63.97
2023-01-22T19:31:48.870Z,53.53
2023-01-22T19:34:23.661Z,56.57
2023-01-22T19:36:57.627Z,59.80
2023-01-22T19:39:28.025Z,55.37
2023-01-22T19:41:55.697Z,58.03
2023-01-22T19:44:23.733Z,55.63
2023-01-22T19:46:51.087Z,54.97
2023-01-22T19:49:18.264Z,70.67
2023-01-22T19:51:45.579Z,64.67
2023-01-22T19:54:13.770Z,67.13
2023-01-22T19:56:45.579Z,61.57
2023-01-22T19:59:17.082Z,66.87
2023-01-22T20:01:48.878Z,68.07
2023-01-22T20:04:25.494Z,69.43
2023-01-22T20:06:58.311Z,69.37
2023-01-22T20:09:25.552Z,65.27
2023-01-22T20:11:54.608Z,64.90
2023-01-22T20:14:30.139Z,64.10
2023-01-22T20:16:58.667Z,63.73
2023-01-22T20:19:26.033Z,62.07
2023-01-22T20:21:53.341Z,56.47
2023-01-22T20:24:20.717Z,64.83
2023-01-22T20:26:48.019Z,70.03
2023-01-22T20:29:16.054Z,72.10
2023-01-22T20:31:44.859Z,79.90
2023-01-22T20:34:12.133Z,62.70
2023-01-22T20:36:39.363Z,72.60
2023-01-22T20:39:06.574Z,77.37
2023-01-22T20:41:34.765Z,76.23
2023-01-22T20:44:02.523Z,84.43
2023-01-22T20:46:29.718Z,72.80
2023-01-22T20:48:58.671Z,76.80
2023-01-22T20:51:28.977Z,70.47
2023-01-22T20:53:57.577Z,79.43
2023-01-22T20:56:30.541Z,212.13
2023-01-22T20:59:03.150Z,105.00
2023-01-22T21:01:31.317Z,89.27
2023-01-22T21:03:59.728Z,92.03
2023-01-22T21:06:30.500Z,111.13
2023-01-22T21:08:59.263Z,74.97
2023-01-22T21:11:28.633Z,77.00
2023-01-22T21:13:57.428Z,107.43
2023-01-22T21:16:28.358Z,75.10
2023-01-22T21:19:08.682Z,79.50
2023-01-22T21:21:36.488Z,97.30
2023-01-22T21:24:03.811Z,99.87
2023-01-22T21:26:33.087Z,80.83
2023-01-22T21:29:07.974Z,88.60
2023-01-22T21:31:36.853Z,111.37
2023-01-22T21:34:05.992Z,77.67
2023-01-22T21:36:39.858Z,99.87
2023-01-22T21:39:09.339Z,88.83
2023-01-22T21:41:38.900Z,88.90
2023-01-22T21:44:25.312Z,104.17
2023-01-22T21:46:52.644Z,114.73
2023-01-22T21:49:23.597Z,107.53
2023-01-22T21:51:54.119Z,83.80
2023-01-22T21:54:30.193Z,86.67
2023-01-22T21:56:57.741Z,99.33
2023-01-22T21:59:25.891Z,84.73
2023-01-22T22:01:54.885Z,83.33
2023-01-22T22:04:24.689Z,76.07
2023-01-22T22:06:52.107Z,104.83
2023-01-22T22:09:25.728Z,69.87
2023-01-22T22:11:56.734Z,78.73
2023-01-22T22:14:24.896Z,98.00
2023-01-22T22:16:52.379Z,70.83
2023-01-22T22:19:21.520Z,81.87
2023-01-22T22:21:49.099Z,118.53
2023-01-22T22:24:16.343Z,84.83
2023-01-22T22:26:43.959Z,100.33
2023-01-22T22:29:11.319Z,148.40
2023-01-22T22:31:39.609Z,253.00
2023-01-22T22:34:07.602Z,181.53
2023-01-22T22:36:34.839Z,151.87
2023-01-22T22:39:02.967Z,157.23
2023-01-22T22:41:32.780Z,159.37
2023-01-22T22:43:59.959Z,153.13
2023-01-22T22:46:28.399Z,166.23
2023-01-22T22:48:57.212Z,152.50
2023-01-22T22:51:31.244Z,144.40
2023-01-22T22:54:01.023Z,147.00
2023-01-22T22:56:28.875Z,134.63
2023-01-22T22:58:57.925Z,139.20
2023-01-22T23:01:26.092Z,131.40
2023-01-22T23:03:54.329Z,122.97
2023-01-22T23:06:25.729Z,119.30
2023-01-22T23:08:56.036Z,114.80
2023-01-22T23:11:26.276Z,131.27
2023-01-22T23:13:54.168Z,106.10
2023-01-22T23:16:23.056Z,124.13
2023-01-22T23:18:52.119Z,154.50
2023-01-22T23:21:25.227Z,135.90
2023-01-22T23:23:53.537Z,97.10
2023-01-22T23:26:28.331Z,95.97
2023-01-22T23:28:58.142Z,86.77
2023-01-22T23:31:27.239Z,106.07
2023-01-22T23:33:56.542Z,76.43
2023-01-22T23:36:26.180Z,85.00
2023-01-22T23:38:53.919Z,90.50
2023-01-22T23:41:21.795Z,94.43
2023-01-22T23:43:50.220Z,98.47
2023-01-22T23:46:21.032Z,133.40
2023-01-22T23:48:49.172Z,85.83
2023-01-22T23:51:17.559Z,80.70
2023-01-22T23:53:48.578Z,89.37
2023-01-22T23:56:16.557Z,92.57
2023-01-22T23:58:43.781Z,91.67
